Time;durP1;ratioP1;P1;durP2;ratioP2;P2;SDS_P1;SDS_P2;PMS_P1;PMS_P2;Temp;Humidity;BMP_temperature;BMP_pressure;BME280_temperature;BME280_humidity;BME280_pressure;Samples;Min_cycle;Max_cycle;Signal;HPM_P1;HPM_P2
2021/01/26 01:19:33;;;;;;;38.88;19.58;;;;;;;;;;5032142;28;20506;-62
2021/01/26 01:22:00;;;;;;;36.45;18.17;;;;;;;;;;5033037;28;20034;-61
2021/01/26 01:24:26;;;;;;;33.60;17.98;;;;;;;;;;5015233;28;20017;-61
2021/01/26 01:26:53;;;;;;;34.33;16.58;;;;;;;;;;5032878;28;20021;-61
2021/01/26 01:29:19;;;;;;;32.65;15.88;;;;;;;;;;5031031;28;20448;-61
2021/01/26 01:31:45;;;;;;;32.10;14.15;;;;;;;;;;5033029;28;20036;-61
2021/01/26 01:34:11;;;;;;;25.45;11.15;;;2.30;99.90;;;;;;5015361;28;20025;-60
2021/01/26 01:36:37;;;;;;;26.58;11.57;;;2.80;99.90;;;;;;5015264;28;20405;-62
2021/01/26 01:39:08;;;;;;;31.70;11.63;;;2.90;99.90;;;;;;5032394;28;20030;-61
2021/01/26 01:41:36;;;;;;;25.42;9.80;;;2.90;99.90;;;;;;5033055;28;20020;-62
2021/01/26 01:44:02;;;;;;;22.33;10.00;;;2.90;99.90;;;;;;5015402;28;20500;-60
2021/01/26 01:46:31;;;;;;;20.95;9.00;;;3.00;99.90;;;;;;5032560;28;20481;-62
2021/01/26 01:49:01;;;;;;;;;;;3.00;99.90;;;;;;5029491;28;20033;-62
2021/01/26 01:51:28;;;;;;;21.13;9.23;;;3.00;99.90;;;;;;5032666;28;19912;-62
2021/01/26 01:54:07;;;;;;;19.80;7.23;;;3.00;99.90;;;;;;5032276;28;20029;-61
2021/01/26 01:56:47;;;;;;;18.67;6.18;;;3.00;99.90;;;;;;5014539;28;20280;-59
2021/01/26 01:59:15;;;;;;;17.15;6.68;;;;;;;;;;5014128;28;20075;-63
2021/01/26 02:01:42;;;;;;;18.67;7.25;;;;;;;;;;5032418;28;20147;-63
2021/01/26 02:04:10;;;;;;;18.85;7.30;;;;;;;;;;5032313;28;20026;-62
2021/01/26 02:06:37;;;;;;;18.88;7.53;;;;;;;;;;5032572;28;20033;-61
2021/01/26 02:09:09;;;;;;;19.67;7.38;;;;;;;;;;5031850;28;20042;-63
2021/01/26 02:11:36;;;;;;;21.67;7.72;;;;;;;;;;5014549;28;20030;-63
2021/01/26 02:14:02;;;;;;;18.02;7.70;;;;;;;;;;5032373;28;20396;-62
2021/01/26 02:16:35;;;;;;;20.77;7.60;;;;;;;;;;5032040;28;20026;-62
2021/01/26 02:19:01;;;;;;;18.08;7.00;;;;;;;;;;5030943;28;20021;-62
2021/01/26 02:21:30;;;;;;;19.55;7.10;;;;;;;;;;5018177;28;20021;-62
2021/01/26 02:23:56;;;;;;;19.30;6.65;;;;;;;;;;5031851;28;20095;-60
2021/01/26 02:26:25;;;;;;;18.67;7.80;;;;;;;;;;5032209;28;20025;-62
2021/01/26 02:28:52;;;;;;;19.02;7.70;;;;;;;;;;5030990;28;20539;-62
2021/01/26 02:31:24;;;;;;;19.40;8.98;;;;;;;;;;5032186;28;20100;-62
2021/01/26 02:33:53;;;;;;;23.13;7.80;;;;;;;;;;5031997;28;20538;-62
2021/01/26 02:36:38;;;;;;;18.90;9.00;;;;;;;;;;5031850;28;20525;-62
2021/01/26 02:39:22;;;;;;;18.73;8.23;;;;;;;;;;5031231;28;20029;-59
2021/01/26 02:42:00;;;;;;;18.40;8.40;;;;;;;;;;5031690;28;20033;-62
2021/01/26 02:44:28;;;;;;;21.05;9.40;;;;;;;;;;5032048;28;20024;-61
2021/01/26 02:47:13;;;;;;;22.35;8.45;;;;;;;;;;5031834;28;20072;-62
2021/01/26 02:50:06;;;;;;;23.17;8.85;;;;;;;;;;5031180;28;20225;-60
2021/01/26 02:52:34;;;;;;;16.88;8.10;;;;;;;;;;5031858;28;20029;-61
2021/01/26 02:55:00;;;;;;;18.98;8.60;;;;;;;;;;5031799;28;20527;-61
2021/01/26 02:57:33;;;;;;;19.23;8.95;;;;;;;;;;5031249;28;20026;-61
2021/01/26 03:00:07;;;;;;;18.60;7.88;;;;;;;;;;5031259;28;20087;-61
2021/01/26 03:02:33;;;;;;;19.70;8.52;;;;;;;;;;5028818;28;20481;-61
2021/01/26 03:05:03;;;;;;;20.95;9.60;;;;;;;;;;5031868;28;20029;-61
2021/01/26 03:07:32;;;;;;;21.58;8.20;;;;;;;;;;5031501;28;20029;-61
2021/01/26 03:10:00;;;;;;;21.63;8.70;;;;;;;;;;5018105;28;20265;-62
2021/01/26 03:12:38;;;;;;;20.58;7.93;;;;;;;;;;5015936;28;20025;-62
2021/01/26 03:15:18;;;;;;;18.38;7.97;;;;;;;;;;5031904;28;20108;-62
2021/01/26 03:17:45;;;;;;;20.80;7.70;;;;;;;;;;5030300;28;20393;-62
2021/01/26 03:20:26;;;;;;;20.17;8.57;;;;;;;;;;5031485;28;20022;-61
2021/01/26 03:22:55;;;;;;;20.15;8.93;;;;;;;;;;5026813;28;20569;-61
2021/01/26 03:25:24;;;;;;;18.85;7.63;;;;;;;;;;5013846;28;20022;-62
2021/01/26 03:27:53;;;;;;;16.75;8.02;;;;;;;;;;5030811;28;20064;-62
2021/01/26 03:30:21;;;;;;;18.75;7.95;;;;;;;;;;5030677;28;20485;-60
2021/01/26 03:32:52;;;;;;;19.75;7.68;;;;;;;;;;5032655;28;20500;-62
2021/01/26 03:35:19;;;;;;;27.33;9.20;;;;;;;;;;5034651;28;20018;-61
2021/01/26 03:37:49;;;;;;;17.45;7.60;;;;;;;;;;5034476;28;20048;-63
2021/01/26 03:40:16;;;;;;;19.90;8.32;;;;;;;;;;5018132;28;20028;-62
2021/01/26 03:42:42;;;;;;;24.75;8.77;;;;;;;;;;5034755;28;20022;-62
2021/01/26 03:45:08;;;;;;;26.17;8.35;;;;;;;;;;5035429;28;20512;-62
2021/01/26 03:47:40;;;;;;;18.17;6.78;;;;;;;;;;5034761;28;20021;-61
2021/01/26 03:50:12;;;;;;;21.08;7.57;;;;;;;;;;5034429;28;20394;-62
2021/01/26 03:52:56;;;;;;;19.75;7.28;;;;;;;;;;5034630;28;20055;-60
2021/01/26 03:55:30;;;;;;;20.50;7.20;;;;;;;;;;4997598;28;20026;-62
2021/01/26 03:57:56;;;;;;;18.25;8.05;;;;;;;;;;5007305;28;20040;-62
2021/01/26 04:00:25;;;;;;;20.30;7.78;;;;;;;;;;5033952;28;20116;-61
2021/01/26 04:02:55;;;;;;;18.05;7.07;;;;;;;;;;5016709;28;20060;-62
2021/01/26 04:05:27;;;;;;;21.92;9.38;;;;;;;;;;5034414;28;20104;-62
2021/01/26 04:08:02;;;;;;;18.02;7.70;;;;;;;;;;5034202;28;20113;-62
2021/01/26 04:10:30;;;;;;;26.50;8.77;;;;;;;;;;5033838;28;20049;-62
2021/01/26 04:12:58;;;;;;;17.00;5.32;;;;;;;;;;5034285;28;20021;-62
2021/01/26 04:15:30;;;;;;;17.38;5.93;;;;;;;;;;5020757;28;20025;-62
2021/01/26 04:17:56;;;;;;;19.25;5.85;;;;;;;;;;5034158;28;20033;-61
2021/01/26 04:20:34;;;;;;;18.50;6.70;;;;;;;;;;5033716;28;20068;-62
2021/01/26 04:23:01;;;;;;;20.47;6.53;;;;;;;;;;5013052;28;20061;-63
2021/01/26 04:25:46;;;;;;;17.30;6.22;;;;;;;;;;5014541;28;20022;-63
2021/01/26 04:28:30;;;;;;;16.70;5.43;;;;;;;;;;5000617;28;20028;-64
2021/01/26 04:30:57;;;;;;;18.55;6.15;;;;;;;;;;5023054;28;20124;-62
2021/01/26 04:33:23;;;;;;;18.10;5.22;;;;;;;;;;5022880;28;20036;-64
2021/01/26 04:35:49;;;;;;;15.88;4.90;;;;;;;;;;5033824;28;20037;-61
2021/01/26 04:38:15;;;;;;;17.52;5.13;;;;;;;;;;5015878;28;20499;-61
2021/01/26 04:40:42;;;;;;;19.20;6.18;;;;;;;;;;5019179;28;20017;-62
2021/01/26 04:43:30;;;;;;;14.50;4.90;;;;;;;;;;5032771;28;20026;-63
2021/01/26 04:46:11;;;;;;;20.50;5.60;;;;;;;;;;5033722;28;20021;-63
2021/01/26 04:48:50;;;;;;;14.43;4.95;;;;;;;;;;5032843;28;20033;-63
2021/01/26 04:51:16;;;;;;;15.52;5.10;;;;;;;;;;5033521;28;20401;-63
2021/01/26 04:53:49;;;;;;;12.77;4.85;;;;;;;;;;5033628;28;20041;-63
2021/01/26 04:56:20;;;;;;;13.18;4.68;;;;;;;;;;5033477;28;20037;-63
2021/01/26 04:58:46;;;;;;;14.65;4.90;;;;;;;;;;5032314;28;20184;-63
2021/01/26 05:01:19;;;;;;;10.98;4.22;;;;;;;;;;5033877;28;20140;-62
2021/01/26 05:04:01;;;;;;;15.02;5.10;;;;;;;;;;5033703;28;20554;-61
2021/01/26 05:06:31;;;;;;;13.68;5.22;;;;;;;;;;5033420;28;20052;-60
2021/01/26 05:08:59;;;;;;;13.05;4.90;;;;;;;;;;5032638;28;20037;-62
2021/01/26 05:11:27;;;;;;;10.98;4.28;;;;;;;;;;5033939;28;20028;-62
2021/01/26 05:13:58;;;;;;;13.48;4.50;;;;;;;;;;5033246;28;20024;-63
2021/01/26 05:16:30;;;;;;;16.90;4.95;;;;;;;;;;5032976;28;20029;-61
2021/01/26 05:18:59;;;;;;;15.00;4.53;;;;;;;;;;5031404;28;20022;-64
2021/01/26 05:21:33;;;;;;;10.05;3.78;;;;;;;;;;5033555;28;20144;-62
2021/01/26 05:24:03;;;;;;;12.50;3.60;;;;;;;;;;5033018;28;20025;-62
2021/01/26 05:26:29;;;;;;;13.85;3.85;;;;;;;;;;5032638;28;20033;-62
2021/01/26 05:29:03;;;;;;;17.10;4.30;;;;;;;;;;5031808;28;20145;-62
2021/01/26 05:31:30;;;;;;;15.68;4.18;;;;;;;;;;5040977;23;20125;-55
2021/01/26 05:33:59;;;;;;;10.77;3.35;;;;;;;;;;5029183;28;20029;-51
2021/01/26 05:36:25;;;;;;;15.52;3.97;;;;;;;;;;5032880;28;20036;-58
2021/01/26 05:38:51;;;;;;;13.50;4.10;;;;;;;;;;5013667;28;20029;-58
2021/01/26 05:41:19;;;;;;;13.73;3.78;;;;;;;;;;5032381;28;20060;-54
2021/01/26 05:43:45;;;;;;;13.70;3.70;;;;;;;;;;5014779;28;20025;-57
2021/01/26 05:46:30;;;;;;;16.35;4.57;;;;;;;;;;5014477;28;20096;-57
2021/01/26 05:48:56;;;;;;;13.45;3.80;;;;;;;;;;5031763;28;20440;-54
2021/01/26 05:51:24;;;;;;;21.70;5.80;;;;;;;;;;5010685;28;20485;-55
2021/01/26 05:53:52;;;;;;;13.10;4.32;;;;;;;;;;5013285;28;20026;-59
2021/01/26 05:56:18;;;;;;;13.98;3.65;;;;;;;;;;5013742;28;20033;-57
2021/01/26 05:58:46;;;;;;;15.00;4.30;;;;;;;;;;5031022;28;20021;-57
2021/01/26 06:01:14;;;;;;;14.95;4.47;;;;;;;;;;5010601;28;20033;-57
2021/01/26 06:03:40;;;;;;;19.70;4.40;;;;;;;;;;5010851;28;20065;-58
2021/01/26 06:06:13;;;;;;;15.07;4.47;;;;;;;;;;5010555;28;20311;-58
2021/01/26 06:08:50;;;;;;;16.88;4.78;;;;;;;;;;5010171;28;20036;-54
2021/01/26 06:11:17;;;;;;;18.80;5.07;;;;;;;;;;5010701;28;20116;-59
2021/01/26 06:13:43;;;;;;;18.23;5.03;;;;;;;;;;5014381;28;20026;-56
2021/01/26 06:16:13;;;;;;;16.00;5.45;;;;;;;;;;5031480;28;20512;-60
2021/01/26 06:18:40;;;;;;;18.80;4.82;;;;;;;;;;5013086;28;20025;-59
2021/01/26 06:21:11;;;;;;;13.82;4.22;;;;;;;;;;5012600;28;20036;-58
2021/01/26 06:23:37;;;;;;;20.23;5.57;;;;;;;;;;5020864;28;20017;-58
2021/01/26 06:26:05;;;;;;;17.33;4.68;;;;;;;;;;5010512;28;20061;-55
2021/01/26 06:28:41;;;;;;;16.38;5.80;;;;;;;;;;5009776;28;20117;-59
2021/01/26 06:31:25;;;;;;;14.00;4.40;;;;;;;;;;5011608;28;20433;-58
2021/01/26 06:34:10;;;;;;;18.02;4.93;;;;;;;;;;5010327;28;20041;-57
2021/01/26 06:36:37;;;;;;;22.33;4.82;;;;;;;;;;5026428;28;20021;-51
2021/01/26 06:39:07;;;;;;;16.25;5.15;;;;;;;;;;5012892;28;20029;-56
2021/01/26 06:41:45;;;;;;;19.05;5.30;;;;;;;;;;5013514;28;20029;-59
2021/01/26 06:44:29;;;;;;;20.15;5.80;;;;;;;;;;5031410;28;20206;-58
2021/01/26 06:47:09;;;;;;;15.68;5.10;;;;;;;;;;5013414;28;20461;-58
2021/01/26 06:49:38;;;;;;;20.90;5.80;;;;;;;;;;5030776;28;20056;-57
2021/01/26 06:52:25;;;;;;;19.52;7.05;;;;;;;;;;5023241;28;20037;-55
2021/01/26 06:55:03;;;;;;;18.40;6.65;;;;;;;;;;5000572;28;20045;-60
2021/01/26 06:57:48;;;;;;;20.88;7.18;;;;;;;;;;4992044;28;20054;-60
2021/01/26 07:00:17;;;;;;;22.13;8.43;;;;;;;;;;4974748;28;20496;-61
2021/01/26 07:02:43;;;;;;;18.92;6.47;;;;;;;;;;5020314;28;20083;-58
2021/01/26 07:05:27;;;;;;;21.55;6.72;;;;;;;;;;5013412;28;20030;-56
2021/01/26 07:08:05;;;;;;;20.85;6.93;;;;;;;;;;5012483;28;20315;-57
2021/01/26 07:10:50;;;;;;;21.15;7.68;;;;;;;;;;5013444;28;20343;-59
2021/01/26 07:13:22;;;;;;;21.63;9.23;;;;;;;;;;5013778;28;20453;-57
2021/01/26 07:15:51;;;;;;;20.77;8.25;;;;;;;;;;5015138;28;20458;-57
2021/01/26 07:18:26;;;;;;;20.75;8.05;;;;;;;;;;5013769;28;20029;-59
2021/01/26 07:21:02;;;;;;;21.20;7.80;;;;;;;;;;5029315;28;20065;-59
2021/01/26 07:23:47;;;;;;;25.42;8.55;;;;;;;;;;5012725;28;20036;-56
2021/01/26 07:26:13;;;;;;;22.52;8.50;;;;;;;;;;5016899;28;20017;-56
2021/01/26 07:28:45;;;;;;;24.70;8.73;;;;;;;;;;5017726;28;20483;-55
2021/01/26 07:31:15;;;;;;;22.48;7.82;;;;;;;;;;5011720;28;20034;-54
2021/01/26 07:33:48;;;;;;;22.85;8.15;;;;;;;;;;5022752;28;20125;-56
2021/01/26 07:36:14;;;;;;;22.60;8.77;;;;;;;;;;5014763;28;20521;-53
2021/01/26 07:38:43;;;;;;;30.48;8.90;;;;;;;;;;5015817;28;20056;-60
2021/01/26 07:41:12;;;;;;;25.00;8.63;;;;;;;;;;5012972;28;20026;-58
2021/01/26 07:43:52;;;;;;;21.67;7.90;;;;;;;;;;5013126;28;20370;-58
2021/01/26 07:46:21;;;;;;;29.00;10.27;;;;;;;;;;5013227;28;20022;-56
2021/01/26 07:48:56;;;;;;;24.38;9.88;;;;;;;;;;5013529;28;20053;-59
2021/01/26 07:51:26;;;;;;;29.95;11.48;;;;;;;;;;5015808;28;20029;-59
2021/01/26 07:54:00;;;;;;;25.65;10.07;;;;;;;;;;5027623;28;20112;-59
2021/01/26 07:56:33;;;;;;;28.02;10.93;;;;;;;;;;5014716;28;20153;-60
2021/01/26 07:59:01;;;;;;;34.05;13.02;;;;;;;;;;5029597;28;20083;-58
2021/01/26 08:01:28;;;;;;;27.83;11.90;;;;;;;;;;5016288;28;20134;-60
2021/01/26 08:04:01;;;;;;;31.85;12.70;;;;;;;;;;5010842;28;20138;-56
2021/01/26 08:06:36;;;;;;;29.08;11.35;;;;;;;;;;4996036;28;20045;-60
2021/01/26 08:09:08;;;;;;;27.10;11.05;;;;;;;;;;4996151;28;20552;-59
2021/01/26 08:11:34;;;;;;;30.02;11.70;;;;;;;;;;4980891;28;20025;-55
2021/01/26 08:14:00;;;;;;;33.20;14.05;;;;;;;;;;5014370;28;20449;-56
2021/01/26 08:16:35;;;;;;;29.98;11.00;;;;;;;;;;5014280;28;20124;-59
2021/01/26 08:19:02;;;;;;;26.60;11.02;;;;;;;;;;5013663;28;20028;-60
2021/01/26 08:21:43;;;;;;;28.23;11.82;;;;;;;;;;5001108;28;20025;-59
2021/01/26 08:24:09;;;;;;;27.85;10.75;;;;;;;;;;5012624;28;20026;-58
2021/01/26 08:26:35;;;;;;;30.00;13.88;;;;;;;;;;5026635;28;20053;-56
2021/01/26 08:29:01;;;;;;;30.10;11.50;;;;;;;;;;5033535;28;20559;-58
2021/01/26 08:31:32;;;;;;;29.55;12.57;;;;;;;;;;5032224;28;20124;-59
2021/01/26 08:34:18;;;;;;;30.45;13.48;;;;;;;;;;5002306;28;20500;-59
2021/01/26 08:36:44;;;;;;;27.10;11.48;;;;;;;;;;4997426;28;20117;-59
2021/01/26 08:39:10;;;;;;;32.28;14.48;;;;;;;;;;5024392;28;20037;-57
2021/01/26 08:41:40;;;;;;;30.52;13.55;;;;;;;;;;5024050;28;20147;-60
2021/01/26 08:44:08;;;;;;;31.40;13.15;;;;;;;;;;5027302;28;20018;-59
2021/01/26 08:46:39;;;;;;;33.83;13.23;;;;;;;;;;5017829;28;20049;-60
2021/01/26 08:49:17;;;;;;;33.20;12.65;;;;;;;;;;5025674;28;20165;-60
2021/01/26 08:51:44;;;;;;;31.00;13.65;;;;;;;;;;5012595;28;20497;-58
2021/01/26 08:54:10;;;;;;;31.55;13.07;;;;;;;;;;5032950;28;20034;-57
2021/01/26 08:56:37;;;;;;;28.70;11.43;;;;;;;;;;5014101;28;20105;-61
2021/01/26 08:59:06;;;;;;;31.88;12.70;;;;;;;;;;5013534;28;20022;-59
2021/01/26 09:01:35;;;;;;;32.45;13.07;;;;;;;;;;5013767;28;20088;-58
2021/01/26 09:04:13;;;;;;;28.55;11.38;;;;;;;;;;5010665;28;20021;-59
2021/01/26 09:06:39;;;;;;;27.33;11.43;;;;;;;;;;4993530;28;20030;-59
2021/01/26 09:09:10;;;;;;;29.58;11.82;;;;;;;;;;5001736;28;20544;-60
2021/01/26 09:11:38;;;;;;;29.98;12.10;;;;;;;;;;5011661;28;20397;-58
2021/01/26 09:14:17;;;;;;;29.65;12.63;;;;;;;;;;5011132;28;20449;-57
2021/01/26 09:16:42;;;;;;;;;;;;;;;;;;5013592;28;20075;-56
2021/01/26 09:19:18;;;;;;;28.85;12.13;;;;;;;;;;5013419;28;19917;-59
2021/01/26 09:21:45;;;;;;;28.67;12.05;;;;;;;;;;5015026;28;20049;-59
2021/01/26 09:24:11;;;;;;;27.50;12.32;;;;;;;;;;5028704;28;20029;-60
2021/01/26 09:26:37;;;;;;;33.22;14.63;;;;;;;;;;5011399;28;20022;-60
2021/01/26 09:29:03;;;;;;;27.45;13.15;;;;;;;;;;5012304;28;20030;-58
2021/01/26 09:31:30;;;;;;;32.17;13.57;;;;;;;;;;5012188;28;20030;-58
2021/01/26 09:34:07;;;;;;;31.45;13.10;;;;;;;;;;5009303;28;20096;-57
2021/01/26 09:36:37;;;;;;;29.70;12.68;;;;;;;;;;5010801;28;20482;-58
2021/01/26 09:39:10;;;;;;;31.08;13.60;;;;;;;;;;5012699;28;20355;-55
2021/01/26 09:41:37;;;;;;;29.63;13.10;;;;;;;;;;5008133;28;20478;-56
2021/01/26 09:44:05;;;;;;;34.90;16.13;;;;;;;;;;5011409;28;20029;-56
2021/01/26 09:46:34;;;;;;;28.70;13.27;;;;;;;;;;5011206;28;20029;-57
2021/01/26 09:49:15;;;;;;;28.92;13.10;;;;;;;;;;5014254;28;20053;-56
2021/01/26 09:51:52;;;;;;;28.67;13.32;;;;;;;;;;5011392;28;20397;-53
2021/01/26 09:54:31;;;;;;;27.67;12.88;;;;;;;;;;5014776;28;20464;-59
2021/01/26 09:56:58;;;;;;;25.98;12.32;;;;;;;;;;5011094;28;20036;-58
2021/01/26 09:59:25;;;;;;;26.30;12.27;;;;;;;;;;5012401;28;20018;-59
2021/01/26 10:01:51;;;;;;;25.63;12.02;;;;;;;;;;5014124;28;20057;-56
2021/01/26 10:04:20;;;;;;;24.90;11.48;;;;;;;;;;5011319;28;20064;-57
2021/01/26 10:06:46;;;;;;;26.67;12.77;;;;;;;;;;5018116;28;20097;-57
2021/01/26 10:09:29;;;;;;;27.30;13.43;;;;;;;;;;5020016;28;20552;-56
2021/01/26 10:12:15;;;;;;;27.90;13.15;;;;;;;;;;5014168;28;20025;-58
2021/01/26 10:14:41;;;;;;;27.80;12.48;;;;;;;;;;4998465;28;20041;-57
2021/01/26 10:17:12;;;;;;;28.25;12.82;;;;;;;;;;5014072;28;20084;-55
2021/01/26 10:19:38;;;;;;;28.50;13.75;;;;;;;;;;5027250;28;20048;-59
2021/01/26 10:22:10;;;;;;;27.23;11.98;;;;;;;;;;5010736;28;20026;-57
2021/01/26 10:24:37;;;;;;;25.48;11.55;;;;;;;;;;5013378;28;20539;-59
2021/01/26 10:27:05;;;;;;;25.73;11.80;;;;;;;;;;5028348;28;20025;-60
2021/01/26 10:29:33;;;;;;;24.35;11.43;;;;;;;;;;5016590;28;20029;-57
2021/01/26 10:32:00;;;;;;;26.90;12.02;;;;;;;;;;5001477;28;20040;-60
2021/01/26 10:34:31;;;;;;;26.30;11.77;;;;;;;;;;5013398;28;20026;-48
2021/01/26 10:37:16;;;;;;;25.48;11.25;;;;;;;;;;5024538;28;20026;-57
2021/01/26 10:39:43;;;;;;;25.42;12.10;;;;;;;;;;5013447;28;20065;-58
2021/01/26 10:42:12;;;;;;;27.08;12.25;;;;;;;;;;5014285;28;20500;-59
2021/01/26 10:44:46;;;;;;;26.10;12.48;;;;;;;;;;5023449;28;20112;-56
2021/01/26 10:47:31;;;;;;;26.55;12.73;;;;;;;;;;5014532;28;20025;-57
2021/01/26 10:49:58;;;;;;;25.90;10.23;;;;;;;;;;5015597;28;20496;-57
2021/01/26 10:52:54;;;;;;;24.60;11.48;;;;;;;;;;5014545;28;20037;-56
2021/01/26 10:55:21;;;;;;;25.73;11.70;;;;;;;;;;5007017;28;20048;-59
2021/01/26 10:57:48;;;;;;;25.17;10.73;;;3.00;99.90;;;;;;5015459;28;20023;-54
2021/01/26 11:00:25;;;;;;;23.98;10.55;;;3.40;99.90;;;;;;5015412;28;20087;-60
2021/01/26 11:02:52;;;;;;;26.67;10.95;;;3.50;99.90;;;;;;5014345;28;20144;-52
2021/01/26 11:05:17;;;;;;;25.45;10.25;;;3.50;99.90;;;;;;5015265;28;20045;-58
2021/01/26 11:07:43;;;;;;;22.90;10.07;;;4.10;99.90;;;;;;5003023;28;20060;-58
2021/01/26 11:10:09;;;;;;;22.40;10.27;;;4.80;99.90;;;;;;5013440;28;20029;-56
2021/01/26 11:12:36;;;;;;;22.98;9.60;;;;;;;;;;5020067;28;20397;-57
2021/01/26 11:15:03;;;;;;;23.15;10.85;;;;;;;;;;5013282;28;20057;-55
2021/01/26 11:17:29;;;;;;;22.73;9.25;;;;;;;;;;5013464;28;20038;-53
2021/01/26 11:19:55;;;;;;;20.35;9.82;;;;;;;;;;5015171;28;20029;-59
2021/01/26 11:22:21;;;;;;;23.42;10.52;;;;;;;;;;5015511;28;20025;-56
2021/01/26 11:24:47;;;;;;;20.40;10.32;;;;;;;;;;5013997;28;20549;-56
2021/01/26 11:27:13;;;;;;;21.95;10.38;;;;;;;;;;5014110;28;20022;-58
2021/01/26 11:29:39;;;;;;;20.53;10.23;;;;;;;;;;5038444;23;20394;-57
2021/01/26 11:32:05;;;;;;;21.30;11.60;;;;;;;;;;5034630;28;20033;-59
2021/01/26 11:34:32;;;;;;;20.63;10.57;;;;;;;;;;5055503;28;20424;-58
2021/01/26 11:36:58;;;;;;;19.42;10.25;;;7.50;99.90;;;;;;5054792;28;20132;-57
2021/01/26 11:39:24;;;;;;;21.63;10.20;;;;;;;;;;5054135;28;20571;-57
2021/01/26 11:41:50;;;;;;;19.67;9.52;;;;;;;;;;5054621;28;20443;-59
2021/01/26 11:44:16;;;;;;;19.75;10.27;;;;;;;;;;5054562;28;20481;-55
2021/01/26 11:46:42;;;;;;;19.10;9.20;;;7.60;99.90;;;;;;5036523;28;20049;-58
2021/01/26 11:49:09;;;;;;;18.75;9.27;;;6.80;99.90;;;;;;5053660;28;20044;-58
2021/01/26 11:51:34;;;;;;;23.40;9.52;;;7.10;99.90;;;;;;5036307;28;20447;-59
2021/01/26 11:54:00;;;;;;;22.23;10.27;;;6.70;99.90;;;;;;5053530;28;20504;-54
2021/01/26 11:56:27;;;;;;;19.85;8.52;;;6.50;99.90;;;;;;5054296;28;20060;-57
2021/01/26 11:58:54;;;;;;;17.67;8.07;;;6.60;99.90;;;;;;5053699;28;20386;-57
2021/01/26 12:01:20;;;;;;;20.35;9.57;;;6.70;99.90;;;;;;5054222;28;20017;-57
2021/01/26 12:03:46;;;;;;;21.30;9.25;;;;;;;;;;5053744;28;20032;-56
2021/01/26 12:06:12;;;;;;;20.88;10.43;;;;;;;;;;5032726;28;20029;-57
2021/01/26 12:08:38;;;;;;;23.17;9.05;;;;;;;;;;5033327;28;20470;-57
2021/01/26 12:11:04;;;;;;;21.63;9.25;;;;;;;;;;5034241;28;20100;-55
2021/01/26 12:13:31;;;;;;;18.73;8.32;;;6.20;99.90;;;;;;5032961;28;20365;-57
2021/01/26 12:15:57;;;;;;;19.15;8.90;;;7.50;99.90;;;;;;5032897;28;20025;-56
2021/01/26 12:18:22;;;;;;;20.65;8.75;;;8.00;99.90;;;;;;5033128;28;20103;-58
2021/01/26 12:20:49;;;;;;;21.15;9.20;;;;;;;;;;5033996;28;20104;-57
2021/01/26 12:23:15;;;;;;;20.30;10.52;;;;;;;;;;5034258;28;20052;-58
2021/01/26 12:25:41;;;;;;;19.00;9.43;;;8.70;99.90;;;;;;5032908;28;20029;-58
2021/01/26 12:28:09;;;;;;;18.20;8.73;;;7.90;99.90;;;;;;5032283;28;20072;-59
2021/01/26 12:30:35;;;;;;;24.03;11.87;;;;;;;;;;5033078;28;20409;-59
2021/01/26 12:33:01;;;;;;;20.40;10.32;;;;;;;;;;5033496;28;20494;-55
2021/01/26 12:35:31;;;;;;;23.15;11.75;;;;;;;;;;5034171;28;20510;-58
2021/01/26 12:37:58;;;;;;;18.95;10.55;;;8.30;99.90;;;;;;5032878;28;20057;-59
2021/01/26 12:40:25;;;;;;;20.65;9.57;;;7.80;99.90;;;;;;5033346;28;20061;-59
2021/01/26 12:42:50;;;;;;;19.45;9.27;;;7.70;99.90;;;;;;5032529;28;20041;-60
2021/01/26 12:45:18;;;;;;;18.77;9.15;;;;;;;;;;5033469;28;20029;-57
2021/01/26 12:47:44;;;;;;;19.45;9.15;;;;;;;;;;5033585;28;20465;-60
2021/01/26 12:50:11;;;;;;;26.27;10.10;;;;;;;;;;5033079;28;20028;-57
2021/01/26 12:52:37;;;;;;;20.42;9.23;;;;;;;;;;5032134;28;20079;-59
2021/01/26 12:55:04;;;;;;;17.77;8.88;;;;;;;;;;5031618;28;20041;-56
2021/01/26 12:57:30;;;;;;;17.27;8.52;;;;;;;;;;5032696;28;20056;-58
2021/01/26 12:59:57;;;;;;;20.10;9.63;;;;;;;;;;5031147;28;20063;-57
2021/01/26 13:02:23;;;;;;;19.20;8.32;;;;;;;;;;5031856;28;20021;-59
2021/01/26 13:04:49;;;;;;;20.65;9.15;;;;;;;;;;5031496;28;20025;-57
2021/01/26 13:07:17;;;;;;;19.05;8.55;;;;;;;;;;5033296;28;20396;-57
2021/01/26 13:09:43;;;;;;;18.17;8.30;;;;;;;;;;5030906;28;20047;-59
2021/01/26 13:12:09;;;;;;;18.42;7.43;;;;;;;;;;5032753;28;20057;-59
2021/01/26 13:14:35;;;;;;;18.52;7.38;;;;;;;;;;5032591;28;20065;-60
2021/01/26 13:17:01;;;;;;;18.15;7.75;;;;;;;;;;5032504;28;20095;-59
2021/01/26 13:19:27;;;;;;;18.75;7.47;;;;;;;;;;5031842;28;20441;-56
2021/01/26 13:21:53;;;;;;;17.85;7.43;;;;;;;;;;5031201;28;20022;-57
2021/01/26 13:24:19;;;;;;;16.25;6.13;;;;;;;;;;5031412;28;20021;-58
2021/01/26 13:26:46;;;;;;;16.23;6.10;;;;;;;;;;5033025;28;20029;-56
2021/01/26 13:29:12;;;;;;;18.00;6.20;;;;;;;;;;5032247;28;20040;-56
2021/01/26 13:31:39;;;;;;;17.65;5.75;;;;;;;;;;5032545;28;20037;-60
2021/01/26 13:34:05;;;;;;;20.45;6.35;;;;;;;;;;5032897;28;20021;-57
2021/01/26 13:36:31;;;;;;;16.23;5.35;;;;;;;;;;5031341;28;20098;-59
2021/01/26 13:38:57;;;;;;;16.40;5.50;;;;;;;;;;5030644;28;20499;-56
2021/01/26 13:41:23;;;;;;;15.57;5.78;;;;;;;;;;5032643;28;20124;-58
2021/01/26 13:43:49;;;;;;;15.93;5.65;;;;;;;;;;5032897;28;20060;-60
2021/01/26 13:46:14;;;;;;;16.63;6.75;;;8.00;99.90;;;;;;5032556;28;20052;-60
2021/01/26 13:48:40;;;;;;;16.52;6.15;;;8.40;99.90;;;;;;5031518;28;20061;-59
2021/01/26 13:51:06;;;;;;;14.52;6.07;;;8.40;99.90;;;;;;5032303;28;20501;-57
2021/01/26 13:53:32;;;;;;;13.40;5.55;;;8.30;99.90;;;;;;5032496;28;20030;-58
2021/01/26 13:55:58;;;;;;;13.05;5.47;;;;;;;;;;5030940;28;20035;-54
2021/01/26 13:58:24;;;;;;;13.52;5.38;;;;;;;;;;5031379;28;20021;-54
2021/01/26 14:00:50;;;;;;;12.38;4.88;;;;;;;;;;5031545;28;20024;-53
2021/01/26 14:03:16;;;;;;;15.70;5.15;;;;;;;;;;5031826;28;20097;-59
2021/01/26 14:05:43;;;;;;;17.90;5.75;;;;;;;;;;5032102;28;20017;-52
2021/01/26 14:08:10;;;;;;;17.77;5.80;;;;;;;;;;5031785;28;20025;-53
2021/01/26 14:10:36;;;;;;;15.63;5.70;;;;;;;;;;5031105;28;20429;-56
2021/01/26 14:13:03;;;;;;;17.00;6.38;;;;;;;;;;5031519;28;20069;-58
2021/01/26 14:15:31;;;;;;;13.75;4.97;;;;;;;;;;5031717;28;20025;-61
2021/01/26 14:17:57;;;;;;;13.25;4.60;;;;;;;;;;5031434;28;20029;-54
2021/01/26 14:20:24;;;;;;;14.32;4.70;;;;;;;;;;5029610;28;20025;-57
2021/01/26 14:22:50;;;;;;;15.48;5.35;;;;;;;;;;5031702;28;20546;-60
2021/01/26 14:25:17;;;;;;;14.18;5.00;;;;;;;;;;5031524;28;20044;-58
2021/01/26 14:27:43;;;;;;;15.85;5.72;;;;;;;;;;5032054;28;20025;-57
2021/01/26 14:30:11;;;;;;;14.35;6.10;;;;;;;;;;5030590;28;20026;-55
2021/01/26 14:32:37;;;;;;;15.32;5.70;;;;;;;;;;5030291;28;20049;-57
2021/01/26 14:35:04;;;;;;;14.15;5.30;;;;;;;;;;5031688;28;20025;-62
2021/01/26 14:37:31;;;;;;;14.30;5.00;;;;;;;;;;5031704;28;20029;-55
2021/01/26 14:39:57;;;;;;;14.20;5.10;;;;;;;;;;5031032;28;20087;-56
2021/01/26 14:42:23;;;;;;;15.77;5.78;;;;;;;;;;5031400;28;20021;-53
2021/01/26 14:44:49;;;;;;;14.88;5.18;;;;;;;;;;5029785;28;20121;-59
2021/01/26 14:47:16;;;;;;;15.45;5.53;;;;;;;;;;5031687;28;20049;-59
2021/01/26 14:49:42;;;;;;;15.63;6.40;;;;;;;;;;5030636;28;20038;-55
2021/01/26 14:52:08;;;;;;;14.27;5.30;;;;;;;;;;5031412;28;20104;-54
2021/01/26 14:54:36;;;;;;;13.90;5.60;;;;;;;;;;5030936;28;20082;-56
2021/01/26 14:57:02;;;;;;;;;;;;;;;;;;5030489;28;20060;-58
2021/01/26 14:59:28;;;;;;;14.15;5.40;;;;;;;;;;5030274;28;19912;-60
2021/01/26 15:01:54;;;;;;;14.10;5.45;;;;;;;;;;5031451;28;20021;-58
2021/01/26 15:04:20;;;;;;;15.55;5.25;;;;;;;;;;5031430;28;20632;-57
2021/01/26 15:06:47;;;;;;;18.33;5.95;;;;;;;;;;5030912;28;20037;-59
2021/01/26 15:09:13;;;;;;;14.93;5.88;;;;;;;;;;5030537;28;20025;-59
2021/01/26 15:11:40;;;;;;;13.27;5.03;;;;;;;;;;5030774;28;20405;-54
2021/01/26 15:14:06;;;;;;;14.55;5.07;;;;;;;;;;5030837;28;20025;-57
2021/01/26 15:16:32;;;;;;;14.95;5.10;;;;;;;;;;5029829;28;20036;-60
2021/01/26 15:18:58;;;;;;;15.10;4.80;;;;;;;;;;5029067;28;20026;-57
2021/01/26 15:21:24;;;;;;;16.23;5.15;;;;;;;;;;5030754;28;20026;-57
2021/01/26 15:23:50;;;;;;;16.52;5.35;;;;;;;;;;5029851;28;20032;-58
2021/01/26 15:26:17;;;;;;;15.55;4.85;;;;;;;;;;5031015;28;20034;-58
2021/01/26 15:28:43;;;;;;;17.20;5.75;;;;;;;;;;5031298;28;20044;-56
2021/01/26 15:31:12;;;;;;;16.27;5.28;;;;;;;;;;5033778;28;20041;-60
2021/01/26 15:33:38;;;;;;;15.27;4.95;;;;;;;;;;4701571;28;10000701;-59
2021/01/26 15:36:04;;;;;;;15.32;5.35;;;;;;;;;;5032254;28;20064;-57
2021/01/26 15:38:30;;;;;;;16.30;5.20;;;;;;;;;;5047926;28;20029;-58
2021/01/26 15:40:56;;;;;;;17.75;6.40;;;;;;;;;;5051614;28;20021;-58
2021/01/26 15:43:22;;;;;;;16.48;4.85;;;;;;;;;;5051064;28;20017;-57
2021/01/26 15:45:50;;;;;;;16.15;5.82;;;;;;;;;;5051846;28;20032;-60